Time;durP1;ratioP1;P1;durP2;ratioP2;P2;SDS_P1;SDS_P2;PMS_P1;PMS_P2;Temp;Humidity;BMP_temperature;BMP_pressure;BME280_temperature;BME280_humidity;BME280_pressure;Samples;Min_cycle;Max_cycle;Signal;HPM_P1;HPM_P2
2021/04/06 00:00:28;;;;;;;1.87;1.40;;;;;;;;;;5118619;27;20577;-71
2021/04/06 00:02:58;;;;;;;1.73;1.10;;;;;;;;;;5118286;28;20530;-72
2021/04/06 00:05:25;;;;;;;2.63;1.60;;;;;;;;;;5118294;28;20486;-72
2021/04/06 00:07:52;;;;;;;2.37;1.20;;;;;;;;;;5114756;28;20447;-72
2021/04/06 00:10:24;;;;;;;2.40;1.77;;;;;;;;;;5118348;28;20573;-71
2021/04/06 00:12:52;;;;;;;2.83;1.30;;;;;;;;;;5118301;28;20443;-71
2021/04/06 00:15:22;;;;;;;1.70;1.07;;;;;;;;;;5118056;28;20903;-71
2021/04/06 00:17:53;;;;;;;2.67;1.37;;;;;;;;;;5117936;28;20446;-72
2021/04/06 00:20:21;;;;;;;2.03;1.30;;;;;;;;;;5118270;28;20240;-72
2021/04/06 00:22:49;;;;;;;2.63;1.20;;;;;;;;;;5117863;28;20232;-71
2021/04/06 00:25:20;;;;;;;5.33;1.40;;;;;;;;;;5117858;28;20905;-71
2021/04/06 00:27:48;;;;;;;1.40;1.13;;;;;;;;;;5118172;28;20288;-71
2021/04/06 00:30:16;;;;;;;1.67;1.20;;;;;;;;;;5117854;28;20236;-72
2021/04/06 00:32:44;;;;;;;2.83;1.37;;;;;;;;;;5117966;28;20209;-72
2021/04/06 00:35:12;;;;;;;2.47;1.30;;;;;;;;;;5118131;28;20284;-71
2021/04/06 00:37:44;;;;;;;2.23;1.00;;;;;;;;;;5118361;28;20205;-72
2021/04/06 00:40:12;;;;;;;1.53;1.20;;;;;;;;;;5118267;28;20523;-72
2021/04/06 00:42:39;;;;;;;1.87;1.20;;;;;;;;;;5118190;28;20521;-72
2021/04/06 00:45:08;;;;;;;3.43;1.47;;;;;;;;;;5117747;28;21005;-72
2021/04/06 00:47:36;;;;;;;2.53;1.33;;;;;;;;;;5108324;28;20446;-72
2021/04/06 00:50:05;;;;;;;1.90;1.10;;;;;;;;;;5117805;28;20465;-72
2021/04/06 00:52:32;;;;;;;2.07;1.53;;;;;;;;;;5118198;28;20990;-71
2021/04/06 00:54:59;;;;;;;1.53;1.10;;;;;;;;;;5118030;28;20458;-71
2021/04/06 00:57:26;;;;;;;2.73;1.40;;;;;;;;;;5117971;27;20451;-72
2021/04/06 01:00:10;;;;;;;4.53;1.70;;;;;;;;;;5118659;28;20449;-72
2021/04/06 01:02:37;;;;;;;2.33;1.13;;;;;;;;;;5121677;28;20652;-72
2021/04/06 01:05:06;;;;;;;3.97;1.30;;;;;;;;;;5121940;28;20271;-72
2021/04/06 01:07:34;;;;;;;2.83;1.10;;;;;;;;;;5121675;28;20255;-72
2021/04/06 01:10:01;;;;;;;1.77;1.00;;;;;;;;;;5122013;28;20445;-72
2021/04/06 01:12:29;;;;;;;3.87;1.77;;;;;;;;;;5121630;28;20426;-72
2021/04/06 01:14:57;;;;;;;2.40;1.30;;;;;;;;;;5121663;28;20511;-72
2021/04/06 01:17:24;;;;;;;5.70;1.40;;;;;;;;;;5121268;28;20454;-71
2021/04/06 01:19:52;;;;;;;1.80;1.37;;;;;;;;;;5121553;28;20899;-72
2021/04/06 01:22:20;;;;;;;3.33;1.20;;;;;;;;;;5121349;28;20972;-72
2021/04/06 01:24:48;;;;;;;7.03;1.80;;;;;;;;;;5121309;28;20274;-72
2021/04/06 01:27:15;;;;;;;4.63;1.60;;;;;;;;;;5121417;28;20287;-72
2021/04/06 01:29:48;;;;;;;3.87;1.27;;;;;;;;;;5121242;28;20748;-72
2021/04/06 01:32:15;;;;;;;7.13;1.70;;;;;;;;;;5121516;28;20223;-72
2021/04/06 01:34:43;;;;;;;4.63;1.37;;;;;;;;;;5121028;28;20486;-72
2021/04/06 01:37:09;;;;;;;5.53;1.70;;;;;;;;;;5121233;28;20334;-72
2021/04/06 01:39:37;;;;;;;4.67;1.30;;;;;;;;;;5121053;28;20284;-72
2021/04/06 01:42:07;;;;;;;1.53;1.30;;;;;;;;;;5121144;28;20204;-72
2021/04/06 01:44:37;;;;;;;3.90;1.50;;;;;;;;;;5121153;28;20236;-72
2021/04/06 01:47:05;;;;;;;2.70;1.17;;;;;;;;;;5120668;28;20243;-72
2021/04/06 01:49:33;;;;;;;4.43;1.30;;;;;;;;;;5120816;28;20295;-72
2021/04/06 01:52:00;;;;;;;5.37;1.60;;;;;;;;;;5120809;28;20613;-72
2021/04/06 01:54:28;;;;;;;2.67;1.13;;;;;;;;;;5120870;28;20622;-72
2021/04/06 01:57:00;;;;;;;4.33;1.43;;;;;;;;;;5120888;28;20283;-72
2021/04/06 01:59:34;;;;;;;4.23;1.70;;;;;;;;;;5120997;28;20212;-71
2021/04/06 02:02:02;;;;;;;3.37;1.20;;;;;;;;;;5121027;28;20211;-72
2021/04/06 02:04:30;;;;;;;4.40;1.37;;;;;;;;;;5120771;28;20224;-72
2021/04/06 02:06:58;;;;;;;4.40;1.23;;;;;;;;;;5120982;27;20236;-72
2021/04/06 02:09:25;;;;;;;3.07;1.50;;;;;;;;;;5120783;28;20240;-71
2021/04/06 02:11:52;;;;;;;3.63;1.50;;;;;;;;;;5120187;28;20753;-72
2021/04/06 02:14:21;;;;;;;3.80;1.40;;;;;;;;;;5120407;28;20708;-72
2021/04/06 02:16:51;;;;;;;2.93;1.30;;;;;;;;;;5120396;28;20641;-73
2021/04/06 02:19:22;;;;;;;2.50;1.50;;;;;;;;;;5120224;28;20236;-73
2021/04/06 02:21:50;;;;;;;3.10;1.40;;;;;;;;;;5120288;28;20667;-73
2021/04/06 02:24:41;;;;;;;3.20;1.73;;;;;;;;;;5120031;28;20240;-72
2021/04/06 02:27:09;;;;;;;3.87;1.80;;;;;;;;;;5105106;27;20236;-71
2021/04/06 02:29:37;;;;;;;2.23;1.30;;;;;;;;;;5120376;28;20288;-72
2021/04/06 02:32:15;;;;;;;4.03;1.23;;;;;;;;;;5120141;28;20287;-75
2021/04/06 02:34:43;;;;;;;5.37;1.90;;;;;;;;;;5120108;28;20212;-74
2021/04/06 02:37:14;;;;;;;2.30;1.47;;;;;;;;;;5120177;28;20288;-75
2021/04/06 02:39:41;;;;;;;2.70;1.47;;;;;;;;;;5120148;28;20292;-74
2021/04/06 02:42:25;;;;;;;4.40;1.70;;;;;;;;;;5119813;28;20228;-75
2021/04/06 02:44:56;;;;;;;2.03;1.23;;;;;;;;;;5119896;27;20573;-75
2021/04/06 02:47:25;;;;;;;3.53;1.53;;;;;;;;;;5119693;28;20521;-75
2021/04/06 02:49:53;;;;;;;3.67;1.67;;;;;;;;;;5119758;28;20260;-75
2021/04/06 02:52:20;;;;;;;5.20;2.27;;;;;;;;;;5119985;28;20453;-75
2021/04/06 02:54:47;;;;;;;3.70;1.73;;;;;;;;;;5119754;28;20499;-76
2021/04/06 02:57:18;;;;;;;7.80;2.07;;;;;;;;;;5119531;28;20707;-76
2021/04/06 02:59:45;;;;;;;3.50;1.40;;;;;;;;;;5119729;28;20241;-76
2021/04/06 03:02:12;;;;;;;4.97;1.77;;;;;;;;;;5119547;28;20308;-76
2021/04/06 03:04:41;;;;;;;3.10;1.93;;;;;;;;;;5119279;28;20279;-75
2021/04/06 03:07:16;;;;;;;2.23;1.50;;;;;;;;;;5116894;28;20200;-74
2021/04/06 03:09:48;;;;;;;2.80;2.00;;;;;;;;;;5124149;27;20283;-72
2021/04/06 03:12:16;;;;;;;3.07;1.47;;;;;;;;;;5127799;27;20758;-73
2021/04/06 03:14:45;;;;;;;3.90;1.57;;;;;;;;;;5118684;28;20227;-73
2021/04/06 03:17:12;;;;;;;8.43;2.13;;;;;;;;;;5119382;27;20481;-74
2021/04/06 03:19:39;;;;;;;5.90;1.93;;;;;;;;;;5117864;28;20557;-74
2021/04/06 03:22:07;;;;;;;4.63;1.77;;;;;;;;;;5109226;28;20530;-75
2021/04/06 03:24:34;;;;;;;3.70;1.87;;;;;;;;;;5105024;28;20565;-75
2021/04/06 03:27:02;;;;;;;3.87;1.70;;;;;;;;;;5109513;28;20233;-75
2021/04/06 03:29:30;;;;;;;5.33;1.67;;;;;;;;;;5104977;28;20229;-72
2021/04/06 03:31:58;;;;;;;2.73;1.80;;;;;;;;;;5109712;28;20688;-73
2021/04/06 03:34:30;;;;;;;3.20;2.10;;;;;;;;;;5110107;28;20213;-72
2021/04/06 03:36:58;;;;;;;3.97;1.93;;;;;;;;;;5115519;27;20625;-75
2021/04/06 03:39:26;;;;;;;2.93;1.67;;;;;;;;;;5122370;27;20629;-73
2021/04/06 03:41:53;;;;;;;5.50;1.70;;;;;;;;;;5118660;28;20200;-74
2021/04/06 03:44:25;;;;;;;3.20;1.93;;;;;;;;;;5107580;28;20217;-73
2021/04/06 03:46:55;;;;;;;2.50;1.57;;;;;;;;;;5107125;28;20194;-75
2021/04/06 03:49:24;;;;;;;2.77;1.87;;;;;;;;;;5113229;28;20223;-75
2021/04/06 03:51:52;;;;;;;6.17;1.93;;;;;;;;;;5117127;28;20641;-76
2021/04/06 03:54:31;;;;;;;4.87;1.83;;;;;;;;;;5118034;28;20308;-77
2021/04/06 03:56:58;;;;;;;5.03;1.83;;;;;;;;;;5108157;27;20524;-76
2021/04/06 03:59:27;;;;;;;5.93;1.97;;;;;;;;;;5138694;27;20473;-76
2021/04/06 04:01:54;;;;;;;8.50;2.23;;;;;;;;;;5136596;27;20473;-76
2021/04/06 04:04:21;;;;;;;3.43;1.73;;;;;;;;;;5136774;27;20541;-75
2021/04/06 04:06:48;;;;;;;6.57;2.10;;;;;;;;;;5125471;27;20473;-76
2021/04/06 04:09:15;;;;;;;4.67;1.67;;;;;;;;;;5116287;28;20530;-75
2021/04/06 04:11:43;;;;;;;5.20;1.37;;;;;;;;;;5117655;28;20244;-75
2021/04/06 04:14:10;;;;;;;5.20;2.40;;;;;;;;;;5118182;28;20259;-75
2021/04/06 04:16:38;;;;;;;4.13;1.90;;;;;;;;;;5116101;28;20459;-75
2021/04/06 04:19:05;;;;;;;3.60;1.80;;;;;;;;;;5115872;28;20522;-74
2021/04/06 04:21:32;;;;;;;3.57;1.70;;;;;;;;;;5117461;28;20494;-75
2021/04/06 04:23:59;;;;;;;3.03;1.80;;;;;;;;;;5117499;28;21324;-75
2021/04/06 04:26:26;;;;;;;6.07;1.60;;;;;;;;;;5116652;28;21390;-75
2021/04/06 04:28:54;;;;;;;7.40;1.80;;;;;;;;;;5118807;28;20499;-74
2021/04/06 04:31:21;;;;;;;2.53;1.70;;;;;;;;;;5119349;28;20530;-74
2021/04/06 04:33:48;;;;;;;5.67;2.13;;;;;;;;;;5117015;28;20518;-74
2021/04/06 04:36:15;;;;;;;6.30;2.27;;;;;;;;;;5120868;27;20457;-74
2021/04/06 04:38:42;;;;;;;3.53;1.80;;;;;;;;;;5122474;27;20502;-75
2021/04/06 04:41:09;;;;;;;4.23;2.00;;;;;;;;;;5121064;28;20536;-75
2021/04/06 04:43:36;;;;;;;4.67;1.90;;;;;;;;;;5120981;27;20443;-74
2021/04/06 04:46:05;;;;;;;3.80;1.87;;;;;;;;;;5120837;28;20531;-74
2021/04/06 04:48:32;;;;;;;5.00;2.03;;;;;;;;;;5120981;28;20530;-74
2021/04/06 04:50:59;;;;;;;7.37;1.93;;;;;;;;;;5121716;28;20871;-75
2021/04/06 04:53:26;;;;;;;5.87;2.30;;;;;;;;;;5122179;28;20517;-74
2021/04/06 04:55:53;;;;;;;5.13;2.23;;;;;;;;;;5121891;28;20491;-74
2021/04/06 04:58:20;;;;;;;2.63;1.63;;;;;;;;;;5122038;28;20526;-75
2021/04/06 05:00:47;;;;;;;6.80;2.17;;;;;;;;;;5122131;28;20525;-74
2021/04/06 05:03:14;;;;;;;5.20;1.70;;;;;;;;;;5121511;28;20466;-75
2021/04/06 05:05:41;;;;;;;4.37;1.80;;;;;;;;;;5120773;28;20517;-75
2021/04/06 05:08:08;;;;;;;6.13;2.23;;;;;;;;;;5120035;28;20514;-75
2021/04/06 05:10:35;;;;;;;2.77;1.53;;;;;;;;;;5119780;28;20890;-74
2021/04/06 05:13:02;;;;;;;3.50;1.67;;;;;;;;;;5119729;28;21000;-75
2021/04/06 05:15:30;;;;;;;1.83;1.70;;;;;;;;;;5119587;28;20494;-75
2021/04/06 05:17:57;;;;;;;2.50;1.70;;;;;;;;;;5119135;28;20521;-74
2021/04/06 05:20:25;;;;;;;4.77;1.77;;;;;;;;;;5119863;27;20495;-74
2021/04/06 05:22:52;;;;;;;6.93;1.83;;;;;;;;;;5119775;28;20493;-74
2021/04/06 05:25:20;;;;;;;3.87;1.50;;;;;;;;;;5119824;28;20569;-74
2021/04/06 05:27:47;;;;;;;3.10;1.77;;;;;;;;;;5119408;28;20450;-74
2021/04/06 05:30:14;;;;;;;3.97;1.67;;;;;;;;;;5119878;28;20442;-75
2021/04/06 05:32:41;;;;;;;4.80;1.60;;;;;;;;;;5121226;28;20470;-75
2021/04/06 05:35:08;;;;;;;5.23;1.80;;;;;;;;;;5121266;28;20530;-74
2021/04/06 05:37:36;;;;;;;5.60;2.10;;;;;;;;;;5121432;28;20473;-74
2021/04/06 05:40:04;;;;;;;5.60;1.57;;;;;;;;;;5121283;28;20539;-74
2021/04/06 05:42:31;;;;;;;7.33;1.90;;;;;;;;;;5121027;28;20517;-75
2021/04/06 05:44:59;;;;;;;8.37;1.73;;;;;;;;;;5121037;28;20518;-74
2021/04/06 05:47:30;;;;;;;2.53;1.70;;;;;;;;;;5120207;28;20442;-75
2021/04/06 05:49:57;;;;;;;8.43;2.07;;;;;;;;;;5121062;28;20447;-74
2021/04/06 05:52:24;;;;;;;2.93;2.07;;;;;;;;;;5120874;28;20561;-75
2021/04/06 05:54:53;;;;;;;6.53;2.13;;;;;;;;;;5120621;28;20522;-74
2021/04/06 05:57:20;;;;;;;7.90;2.00;;;;;;;;;;5120658;28;20921;-75
2021/04/06 05:59:47;;;;;;;6.43;2.10;;;;;;;;;;5120699;28;20537;-74
2021/04/06 06:02:14;;;;;;;6.53;2.00;;;;;;;;;;5120256;28;20466;-75
2021/04/06 06:04:41;;;;;;;5.93;2.00;;;;;;;;;;5120588;28;20562;-75
2021/04/06 06:07:08;;;;;;;3.97;2.00;;;;;;;;;;5120816;28;20526;-75
2021/04/06 06:09:35;;;;;;;2.40;2.07;;;;;;;;;;5120757;28;20477;-75
2021/04/06 06:12:04;;;;;;;5.30;2.53;;;;;;;;;;5120584;28;20442;-74
2021/04/06 06:14:32;;;;;;;7.20;2.33;;;;;;;;;;5120585;28;20503;-75
2021/04/06 06:17:11;;;;;;;7.20;2.20;;;;;;;;;;5120088;28;20632;-75
2021/04/06 06:19:39;;;;;;;4.67;2.00;;;;;;;;;;5120517;28;20922;-74
2021/04/06 06:22:11;;;;;;;6.43;2.20;;;;;;;;;;5120589;28;20534;-74
2021/04/06 06:24:40;;;;;;;3.13;1.80;;;;;;;;;;5119904;28;20931;-74
2021/04/06 06:27:24;;;;;;;7.33;2.20;;;;;;;;;;5119940;28;20438;-74
2021/04/06 06:29:52;;;;;;;7.83;1.93;;;;;;;;;;5120278;28;20506;-75
2021/04/06 06:32:19;;;;;;;3.10;1.70;;;;;;;;;;5118266;28;20442;-75
2021/04/06 06:34:47;;;;;;;4.17;1.73;;;;;;;;;;5110888;28;20480;-74
2021/04/06 06:37:17;;;;;;;5.13;1.83;;;;;;;;;;5119821;28;20816;-76
2021/04/06 06:39:49;;;;;;;3.33;1.73;;;;;;;;;;5120164;28;20450;-75
2021/04/06 06:42:19;;;;;;;7.97;2.10;;;;;;;;;;5119752;27;20484;-75
2021/04/06 06:44:47;;;;;;;3.60;1.80;;;;;;;;;;5119632;28;20537;-76
2021/04/06 06:47:23;;;;;;;5.97;2.00;;;;;;;;;;5117381;28;20438;-75
2021/04/06 06:49:53;;;;;;;7.43;1.53;;;;;;;;;;5119571;28;20854;-75
2021/04/06 06:52:28;;;;;;;4.53;1.50;;;;;;;;;;5119937;28;20243;-76
2021/04/06 06:54:57;;;;;;;7.17;2.57;;;;;;;;;;5119683;28;20498;-75
2021/04/06 06:57:27;;;;;;;6.00;2.00;;;;;;;;;;5118574;28;20994;-75
2021/04/06 07:00:02;;;;;;;6.13;1.80;;;;;;;;;;5118830;28;21688;-73
2021/04/06 07:02:29;;;;;;;2.07;1.67;;;;;;;;;;5124064;27;20196;-75
2021/04/06 07:05:09;;;;;;;4.27;1.60;;;;;;;;;;5121862;27;20263;-75
2021/04/06 07:07:46;;;;;;;5.33;1.97;;;;;;;;;;5114086;27;20284;-76
2021/04/06 07:10:14;;;;;;;2.93;1.60;;;;;;;;;;5101719;28;20280;-75
2021/04/06 07:12:41;;;;;;;3.63;1.43;;;;;;;;;;5107833;28;20285;-75
2021/04/06 07:15:10;;;;;;;9.70;1.67;;;;;;;;;;5118094;28;20288;-75
2021/04/06 07:17:38;;;;;;;8.80;2.00;;;;;;;;;;5107512;28;20312;-75
2021/04/06 07:20:06;;;;;;;3.97;1.60;;;;;;;;;;5109036;28;20436;-75
2021/04/06 07:22:33;;;;;;;4.60;1.57;;;;;;;;;;5104959;28;20475;-75
2021/04/06 07:25:00;;;;;;;5.03;1.50;;;;;;;;;;5107654;28;20232;-76
2021/04/06 07:27:27;;;;;;;5.30;1.60;;;;;;;;;;5106345;28;20435;-76
2021/04/06 07:29:54;;;;;;;3.40;1.63;;;;;;;;;;5106705;28;20466;-75
2021/04/06 07:32:23;;;;;;;4.30;1.87;;;;;;;;;;5116488;28;20525;-76
2021/04/06 07:34:50;;;;;;;6.80;1.80;;;;;;;;;;5118663;28;20543;-75
2021/04/06 07:37:17;;;;;;;5.03;1.60;;;;;;;;;;5118727;28;20465;-76
2021/04/06 07:39:44;;;;;;;3.57;1.47;;;;;;;;;;5118693;28;20468;-76
2021/04/06 07:42:11;;;;;;;4.20;1.00;;;;;;;;;;5118575;28;20474;-75
2021/04/06 07:44:38;;;;;;;3.97;1.47;;;;;;;;;;5118567;28;20890;-76
2021/04/06 07:47:05;;;;;;;5.40;1.90;;;;;;;;;;5118397;28;20562;-76
2021/04/06 07:49:34;;;;;;;1.90;1.33;;;;;;;;;;5116642;28;20457;-75
2021/04/06 07:52:03;;;;;;;2.40;1.80;;;;;;;;;;5105785;28;20475;-74
2021/04/06 07:54:49;;;;;;;3.60;1.07;;;;;;;;;;5105414;28;20462;-75
2021/04/06 07:57:17;;;;;;;3.13;1.07;;;;;;;;;;5105127;28;20439;-74
2021/04/06 07:59:54;;;;;;;4.53;1.80;;;;;;;;;;5105053;28;20197;-74
2021/04/06 08:02:25;;;;;;;2.97;1.50;;;;;;;;;;5107159;28;20224;-75
2021/04/06 08:04:53;;;;;;;3.85;1.35;;;;;;;;;;5104071;28;20285;-75
2021/04/06 08:07:27;;;;;;;2.33;1.50;;;;;;;;;;5106311;28;20196;-74
2021/04/06 08:09:55;;;;;;;2.63;1.40;;;;;;;;;;5105975;28;20496;-75
2021/04/06 08:12:24;;;;;;;3.87;1.30;;;;;;;;;;5106512;28;20464;-75
2021/04/06 08:14:53;;;;;;;2.50;1.13;;;;;;;;;;5103146;28;20300;-76
2021/04/06 08:17:40;;;;;;;6.47;1.53;;;;;;;;;;5112543;28;20877;-75
2021/04/06 08:20:16;;;;;;;2.00;1.27;;;;;;;;;;5118460;28;20206;-75
2021/04/06 08:22:47;;;;;;;2.63;1.00;;;;;;;;;;5118437;28;20716;-75
2021/04/06 08:25:32;;;;;;;7.33;1.30;;;;;;;;;;5118339;28;20259;-75
2021/04/06 08:28:00;;;;;;;6.43;1.60;;;;;;;;;;5112247;28;20197;-76
2021/04/06 08:30:28;;;;;;;3.20;1.47;;;;;;;;;;5129775;28;20267;-76
2021/04/06 08:33:12;;;;;;;2.23;1.07;;;;;;;;;;5127674;27;20534;-75
2021/04/06 08:36:09;;;;;;;4.97;1.17;;;;;;;;;;5106532;28;20487;-75
2021/04/06 08:38:43;;;;;;;1.43;1.33;;;;;;;;;;5074619;28;20433;-75
2021/04/06 08:41:13;;;;;;;3.83;1.30;;;;;;;;;;5097674;28;20477;-76
2021/04/06 08:43:43;;;;;;;3.30;1.13;;;;;;;;;;5105598;28;20514;-76
2021/04/06 08:46:11;;;;;;;4.87;1.23;;;;;;;;;;5104465;28;20253;-76
2021/04/06 08:48:46;;;;;;;2.03;1.30;;;;;;;;;;5105384;28;20289;-77
2021/04/06 08:51:18;;;;;;;6.47;1.63;;;;;;;;;;5104553;28;20197;-77
2021/04/06 08:53:46;;;;;;;4.07;0.97;;;;;;;;;;5103279;28;20232;-76
2021/04/06 08:56:13;;;;;;;3.33;1.87;;;;;;;;;;5105643;28;20249;-77
2021/04/06 08:58:40;;;;;;;1.50;1.00;;;;;;;;;;5103136;28;20296;-78
2021/04/06 09:01:08;;;;;;;4.60;1.07;;;;;;;;;;5105519;28;20208;-74
2021/04/06 09:03:35;;;;;;;2.63;1.10;;;;;;;;;;5111656;28;20241;-74
2021/04/06 09:06:04;;;;;;;4.20;1.67;;;;;;;;;;5117538;28;20494;-74
2021/04/06 09:08:44;;;;;;;4.67;1.27;;;;;;;;;;5117776;28;20296;-74
2021/04/06 09:11:13;;;;;;;3.60;1.20;;;;;;;;;;5117370;28;20443;-74
2021/04/06 09:13:40;;;;;;;3.30;1.30;;;;;;;;;;5117659;28;20291;-74
2021/04/06 09:16:09;;;;;;;2.03;0.93;;;;;;;;;;5117438;28;20304;-74
2021/04/06 09:18:37;;;;;;;8.17;1.33;;;;;;;;;;5114419;28;20291;-76
2021/04/06 09:21:07;;;;;;;4.87;1.00;;;;;;;;;;5102236;28;20285;-75
2021/04/06 09:23:34;;;;;;;3.80;1.23;;;;;;;;;;5105883;28;20311;-75
2021/04/06 09:26:04;;;;;;;2.97;1.23;;;;;;;;;;5119149;28;20247;-75
2021/04/06 09:28:32;;;;;;;3.40;0.97;;;;;;;;;;5120899;27;20304;-76
2021/04/06 09:30:59;;;;;;;3.67;1.10;;;;;;;;;;5119216;27;20288;-76
2021/04/06 09:33:26;;;;;;;4.40;1.23;;;;;;;;;;5133803;27;20218;-76
2021/04/06 09:35:54;;;;;;;5.50;1.50;;;;;;;;;;5125324;27;20267;-75
2021/04/06 09:38:22;;;;;;;3.53;1.33;;;;;;;;;;5116264;28;20233;-75
2021/04/06 09:40:50;;;;;;;2.23;1.60;;;;;;;;;;5108295;28;20225;-74
2021/04/06 09:43:17;;;;;;;2.57;1.50;;;;;;;;;;5119055;28;20288;-75
2021/04/06 09:45:47;;;;;;;3.80;1.83;;;;;;;;;;5109054;28;20312;-75
2021/04/06 09:48:14;;;;;;;2.83;0.90;;;;;;;;;;5108264;28;20262;-75
2021/04/06 09:50:54;;;;;;;3.23;1.20;;;;;;;;;;5111827;28;20261;-75
2021/04/06 09:53:22;;;;;;;1.40;1.10;;;;;;;;;;5117178;28;20284;-75
2021/04/06 09:55:49;;;;;;;10.20;1.30;;;;;;;;;;5106497;28;20217;-74
2021/04/06 09:58:16;;;;;;;3.57;0.90;;;;;;;;;;5120306;28;20302;-74
2021/04/06 10:00:45;;;;;;;2.13;1.03;;;;;;;;;;5117657;28;20228;-73
2021/04/06 10:03:13;;;;;;;3.00;1.20;;;;;;;;;;5105023;28;20439;-75
2021/04/06 10:05:43;;;;;;;2.43;1.23;;;;;;;;;;5107457;28;20253;-73
2021/04/06 10:08:11;;;;;;;3.47;1.17;;;;;;;;;;5105742;28;20275;-73
2021/04/06 10:10:45;;;;;;;3.73;1.30;;;;;;;;;;5111236;28;20289;-75
2021/04/06 10:13:12;;;;;;;8.23;1.43;;;;;;;;;;5107602;28;20197;-74
2021/04/06 10:15:39;;;;;;;3.37;1.33;;;;;;;;;;5118848;28;20271;-76
2021/04/06 10:18:08;;;;;;;3.57;1.50;;;;;;;;;;5117949;28;20743;-75
2021/04/06 10:20:37;;;;;;;5.60;1.20;;;;;;;;;;5118137;28;20211;-75
2021/04/06 10:23:04;;;;;;;2.37;1.10;;;;;;;;;;5121414;27;20663;-75
2021/04/06 10:25:35;;;;;;;3.40;1.13;;;;;;;;;;5140078;27;20278;-75
2021/04/06 10:28:03;;;;;;;4.20;1.30;;;;;;;;;;5120620;27;20245;-74
2021/04/06 10:30:35;;;;;;;5.47;1.33;;;;;;;;;;5118563;28;20228;-75
2021/04/06 10:33:06;;;;;;;3.07;0.90;;;;;;;;;;5116885;28;20200;-76
2021/04/06 10:35:35;;;;;;;6.63;1.53;;;;;;;;;;5119287;28;20765;-76
2021/04/06 10:38:03;;;;;;;3.43;1.50;;;;;;;;;;5119574;28;20232;-74
2021/04/06 10:40:35;;;;;;;3.07;1.10;;;;;;;;;;5113208;28;20653;-78
2021/04/06 10:43:04;;;;;;;4.00;1.37;;;;;;;;;;5105189;28;20205;-75
2021/04/06 10:45:33;;;;;;;3.10;1.03;;;;;;;;;;5110528;28;20227;-75
2021/04/06 10:48:11;;;;;;;2.63;1.23;;;;;;;;;;5111460;28;20201;-76
2021/04/06 10:50:42;;;;;;;3.13;1.20;;;;;;;;;;5100496;28;20686;-77
2021/04/06 10:53:16;;;;;;;2.00;0.90;;;;;;;;;;5118730;28;20296;-75
2021/04/06 10:55:43;;;;;;;3.33;1.00;;;;;;;;;;5104959;28;20221;-75
2021/04/06 10:58:10;;;;;;;1.60;0.80;;;;;;;;;;5105408;28;20629;-75
2021/04/06 11:00:38;;;;;;;1.37;1.10;;;;;;;;;;5112796;28;20209;-74
2021/04/06 11:03:09;;;;;;;2.50;0.90;;;;;;;;;;5106161;28;20289;-74
2021/04/06 11:05:38;;;;;;;4.07;1.10;;;;;;;;;;5107508;28;20689;-74
2021/04/06 11:08:23;;;;;;;2.03;1.10;;;;;;;;;;5104721;28;20280;-74
2021/04/06 11:10:52;;;;;;;1.27;1.00;;;;;;;;;;5106953;28;20207;-74
2021/04/06 11:13:19;;;;;;;2.47;1.13;;;;;;;;;;5104618;28;20260;-74
2021/04/06 11:15:46;;;;;;;3.07;1.13;;;;;;;;;;5105106;28;21017;-73
2021/04/06 11:18:13;;;;;;;1.73;1.00;;;;;;;;;;5103774;28;20198;-70
2021/04/06 11:20:41;;;;;;;1.53;1.00;;;;;;;;;;5106461;27;20292;-75
2021/04/06 11:23:08;;;;;;;3.43;1.00;;;;;;;;;;5105947;28;20240;-76
2021/04/06 11:25:36;;;;;;;8.37;1.20;;;;;;;;;;5106286;28;20249;-76
2021/04/06 11:28:03;;;;;;;2.83;1.37;;;;;;;;;;5107756;28;20204;-78
2021/04/06 11:30:32;;;;;;;3.33;0.90;;;;;;;;;;5103825;28;20231;-78
2021/04/06 11:33:00;;;;;;;1.83;0.93;;;;;;;;;;5104951;28;20665;-80
2021/04/06 11:35:27;;;;;;;6.93;1.30;;;;;;;;;;5105607;28;20281;-78
2021/04/06 11:37:55;;;;;;;2.93;0.90;;;;;;;;;;5104495;28;20200;-77
2021/04/06 11:40:23;;;;;;;1.73;0.80;;;;;;;;;;5103767;28;20229;-77
2021/04/06 11:42:51;;;;;;;2.43;0.90;;;;;;;;;;5104596;28;20198;-77
2021/04/06 11:45:21;;;;;;;2.03;0.87;;;;;;;;;;5097987;28;20786;-78
2021/04/06 11:47:49;;;;;;;3.67;1.00;;;;;;;;;;5104886;28;20270;-78
2021/04/06 11:50:16;;;;;;;3.80;0.90;;;;;;;;;;5102919;28;20522;-78
2021/04/06 11:52:43;;;;;;;4.70;1.03;;;;;;;;;;5106634;28;20463;-77
2021/04/06 11:55:11;;;;;;;3.63;0.90;;;;;;;;;;5102845;28;21040;-77
2021/04/06 11:57:43;;;;;;;7.10;1.30;;;;;;;;;;5115083;28;20270;-77
2021/04/06 12:00:12;;;;;;;2.40;1.07;;;;;;;;;;5116793;28;20493;-77
2021/04/06 12:02:39;;;;;;;2.17;0.90;;;;;;;;;;5112931;27;20293;-77
2021/04/06 12:05:06;;;;;;;5.13;0.83;;;;;;;;;;5109442;28;20763;-77
2021/04/06 12:07:33;;;;;;;2.37;0.83;;;;;;;;;;5117533;28;20307;-77
2021/04/06 12:10:01;;;;;;;4.50;1.10;;;;;;;;;;5116789;28;20613;-78
2021/04/06 12:12:29;;;;;;;3.60;1.20;;;;;;;;;;5117177;28;20262;-77
2021/04/06 12:14:56;;;;;;;3.70;1.33;;;;;;;;;;5115773;28;20713;-77
2021/04/06 12:17:23;;;;;;;1.43;1.30;;;;;;;;;;5116480;28;20243;-77
2021/04/06 12:19:50;;;;;;;1.93;1.10;;;;;;;;;;5118502;27;20236;-78
2021/04/06 12:22:18;;;;;;;4.47;1.10;;;;;;;;;;5112817;28;20243;-77
2021/04/06 12:24:45;;;;;;;1.83;1.10;;;;;;;;;;5116738;28;20305;-74
2021/04/06 12:27:12;;;;;;;5.07;0.93;;;;;;;;;;5102003;28;20220;-76
2021/04/06 12:29:39;;;;;;;8.83;2.13;;;;;;;;;;5112390;28;20192;-76
2021/04/06 12:32:06;;;;;;;2.70;1.07;;;;;;;;;;5102262;28;20289;-77
2021/04/06 12:34:34;;;;;;;2.17;0.97;;;;;;;;;;5099707;28;20284;-76
2021/04/06 12:37:01;;;;;;;5.13;1.27;;;;;;;;;;5097902;28;20972;-76
2021/04/06 12:39:48;;;;;;;3.77;1.10;;;;;;;;;;5100228;28;20200;-76
2021/04/06 12:42:15;;;;;;;6.70;1.20;;;;;;;;;;5100332;28;20292;-77
2021/04/06 12:44:42;;;;;;;4.53;1.57;;;;;;;;;;5102207;28;20619;-78
2021/04/06 12:47:09;;;;;;;3.17;1.30;;;;;;;;;;5117130;27;20222;-79
2021/04/06 12:49:37;;;;;;;2.10;0.93;;;;;;;;;;5116190;28;20723;-75
2021/04/06 12:52:05;;;;;;;4.47;0.87;;;;;;;;;;5116942;28;20193;-74
2021/04/06 12:54:32;;;;;;;4.30;1.33;;;;;;;;;;5113169;28;20213;-74
2021/04/06 12:56:59;;;;;;;3.50;1.17;;;;;;;;;;5113559;28;20201;-75
2021/04/06 12:59:26;;;;;;;3.83;0.90;;;;;;;;;;5110646;28;20240;-75
2021/04/06 13:01:53;;;;;;;2.73;0.90;;;;;;;;;;5121495;28;20288;-74
2021/04/06 13:04:20;;;;;;;2.90;1.40;;;;;;;;;;5121315;28;20256;-74
2021/04/06 13:06:48;;;;;;;9.50;1.87;;;;;;;;;;5106948;28;20664;-75
2021/04/06 13:09:15;;;;;;;7.57;2.10;;;;;;;;;;5121764;28;20291;-74
2021/04/06 13:11:42;;;;;;;4.50;1.00;;;;;;;;;;5102418;28;20201;-75
2021/04/06 13:14:09;;;;;;;2.03;1.37;;;;;;;;;;5120633;28;20228;-75
2021/04/06 13:16:36;;;;;;;3.90;1.40;;;;;;;;;;5118741;28;20629;-75
2021/04/06 13:19:03;;;;;;;3.43;1.30;;;;;;;;;;5110988;28;20207;-75
2021/04/06 13:21:30;;;;;;;3.63;1.10;;;;;;;;;;5104370;28;20280;-75
2021/04/06 13:23:59;;;;;;;2.47;1.20;;;;;;;;;;5134458;27;20263;-75
2021/04/06 13:26:26;;;;;;;8.57;1.57;;;;;;;;;;5116797;28;20790;-75
2021/04/06 13:28:53;;;;;;;3.07;1.43;;;;;;;;;;5121211;28;20233;-75
2021/04/06 13:31:20;;;;;;;2.13;1.10;;;;;;;;;;5107443;28;20246;-75
2021/04/06 13:33:47;;;;;;;2.23;1.13;;;;;;;;;;5117310;28;20257;-75
2021/04/06 13:36:14;;;;;;;2.93;1.00;;;;;;;;;;5119518;28;20308;-75
2021/04/06 13:38:41;;;;;;;3.90;1.27;;;;;;;;;;5120172;28;20233;-74
2021/04/06 13:41:10;;;;;;;4.40;1.37;;;;;;;;;;5108114;28;20236;-74
2021/04/06 13:43:37;;;;;;;3.40;1.30;;;;;;;;;;5120970;28;20236;-74
2021/04/06 13:46:04;;;;;;;4.17;1.40;;;;;;;;;;5111472;28;20225;-74
2021/04/06 13:48:31;;;;;;;2.93;1.63;;;;;;;;;;5120877;28;20273;-74
2021/04/06 13:50:58;;;;;;;2.63;1.30;;;;;;;;;;5106907;28;20687;-74
2021/04/06 13:53:25;;;;;;;2.93;1.17;;;;;;;;;;5120916;28;20600;-74
2021/04/06 13:55:52;;;;;;;5.07;1.20;;;;;;;;;;5105356;28;20591;-75
2021/04/06 13:58:20;;;;;;;3.63;1.30;;;;;;;;;;5110807;28;20285;-74
2021/04/06 14:00:49;;;;;;;3.50;0.93;;;;;;;;;;5110985;28;20728;-75
2021/04/06 14:03:16;;;;;;;2.77;1.27;;;;;;;;;;5119572;28;20288;-75
2021/04/06 14:05:43;;;;;;;4.10;1.20;;;;;;;;;;5112211;28;20252;-75
2021/04/06 14:08:10;;;;;;;3.63;1.00;;;;;;;;;;5119127;28;20316;-74
2021/04/06 14:10:38;;;;;;;2.03;1.03;;;;;;;;;;5119441;28;20692;-74
2021/04/06 14:13:05;;;;;;;10.77;4.67;;;;;;;;;;5120607;28;20236;-75
2021/04/06 14:15:33;;;;;;;1.63;0.90;;;;;;;;;;5102516;27;20290;-75
2021/04/06 14:18:01;;;;;;;4.27;1.13;;;;;;;;;;5111946;28;20208;-75
2021/04/06 14:20:30;;;;;;;3.90;0.93;;;;;;;;;;5128167;27;20223;-74
2021/04/06 14:22:57;;;;;;;2.17;1.30;;;;;;;;;;5107248;28;20203;-73
2021/04/06 14:25:26;;;;;;;3.07;1.07;;;;;;;;;;5111309;28;20256;-73
2021/04/06 14:27:54;;;;;;;3.00;1.30;;;;;;;;;;5110694;28;20540;-74
2021/04/06 14:30:23;;;;;;;4.07;1.00;;;;;;;;;;5107298;28;20280;-74
2021/04/06 14:32:52;;;;;;;3.73;1.23;;;;;;;;;;5107135;28;20311;-73
2021/04/06 14:35:19;;;;;;;1.93;1.23;;;;;;;;;;5109748;28;20652;-73
2021/04/06 14:37:46;;;;;;;4.07;1.27;;;;;;;;;;5106115;28;20684;-72
2021/04/06 14:40:14;;;;;;;3.43;1.20;;;;;;;;;;5118979;27;20280;-74
2021/04/06 14:42:41;;;;;;;2.27;1.03;;;;;;;;;;5126882;27;20237;-73
2021/04/06 14:45:09;;;;;;;1.73;0.90;;;;;;;;;;5115826;28;20268;-73
2021/04/06 14:47:36;;;;;;;1.40;0.80;;;;;;;;;;5109196;28;20267;-73
2021/04/06 14:50:05;;;;;;;2.33;0.97;;;;;;;;;;5119713;28;20284;-73
2021/04/06 14:52:32;;;;;;;2.80;1.20;;;;;;;;;;5119621;28;20532;-73